sensor_id;sensor_type;location;lat;lon;timestamp;temperature;humidity
4820;DHT22;2424;49.696;6.630;2023-11-19T00:05:10;9.60;99.90
4820;DHT22;2424;49.696;6.630;2023-11-19T00:10:32;9.60;99.90
4820;DHT22;2424;49.696;6.630;2023-11-19T00:15:54;9.60;99.90
4820;DHT22;2424;49.696;6.630;2023-11-19T00:21:18;9.70;99.90
4820;DHT22;2424;49.696;6.630;2023-11-19T00:26:40;9.70;99.90
4820;DHT22;2424;49.696;6.630;2023-11-19T00:32:03;9.70;99.90
4820;DHT22;2424;49.696;6.630;2023-11-19T00:37:27;9.80;99.90
4820;DHT22;2424;49.696;6.630;2023-11-19T00:42:49;9.80;99.90
4820;DHT22;2424;49.696;6.630;2023-11-19T00:48:11;9.80;99.90
4820;DHT22;2424;49.696;6.630;2023-11-19T00:53:34;9.80;99.90
4820;DHT22;2424;49.696;6.630;2023-11-19T00:58:56;9.90;99.90
4820;DHT22;2424;49.696;6.630;2023-11-19T01:04:18;9.90;99.90
4820;DHT22;2424;49.696;6.630;2023-11-19T01:09:43;9.90;99.90
4820;DHT22;2424;49.696;6.630;2023-11-19T01:15:05;10.00;99.90
4820;DHT22;2424;49.696;6.630;2023-11-19T01:20:28;10.10;99.90
4820;DHT22;2424;49.696;6.630;2023-11-19T01:25:51;10.10;99.90
4820;DHT22;2424;49.696;6.630;2023-11-19T01:31:15;10.10;99.90
4820;DHT22;2424;49.696;6.630;2023-11-19T01:36:37;10.10;99.90
4820;DHT22;2424;49.696;6.630;2023-11-19T01:42:01;10.10;99.90
4820;DHT22;2424;49.696;6.630;2023-11-19T01:47:22;10.20;99.90
4820;DHT22;2424;49.696;6.630;2023-11-19T01:52:45;10.20;99.90
4820;DHT22;2424;49.696;6.630;2023-11-19T01:58:08;10.30;99.90
4820;DHT22;2424;49.696;6.630;2023-11-19T02:03:31;10.30;99.90
4820;DHT22;2424;49.696;6.630;2023-11-19T02:08:54;10.30;99.90
4820;DHT22;2424;49.696;6.630;2023-11-19T02:14:18;10.30;99.90
4820;DHT22;2424;49.696;6.630;2023-11-19T02:19:40;10.30;99.90
4820;DHT22;2424;49.696;6.630;2023-11-19T02:25:06;10.40;99.90
4820;DHT22;2424;49.696;6.630;2023-11-19T02:30:30;10.40;99.90
4820;DHT22;2424;49.696;6.630;2023-11-19T02:35:52;10.50;99.90
4820;DHT22;2424;49.696;6.630;2023-11-19T02:41:14;10.60;99.90
4820;DHT22;2424;49.696;6.630;2023-11-19T02:46:37;10.60;99.90
4820;DHT22;2424;49.696;6.630;2023-11-19T02:52:03;10.70;99.90
4820;DHT22;2424;49.696;6.630;2023-11-19T02:57:30;10.80;99.90
4820;DHT22;2424;49.696;6.630;2023-11-19T03:02:54;10.80;99.90
4820;DHT22;2424;49.696;6.630;2023-11-19T03:08:20;10.90;99.90
4820;DHT22;2424;49.696;6.630;2023-11-19T03:13:42;11.00;99.90
4820;DHT22;2424;49.696;6.630;2023-11-19T03:19:06;11.10;99.90
4820;DHT22;2424;49.696;6.630;2023-11-19T03:24:28;11.10;99.90
4820;DHT22;2424;49.696;6.630;2023-11-19T03:29:50;11.20;99.90
4820;DHT22;2424;49.696;6.630;2023-11-19T03:35:13;11.20;99.90
4820;DHT22;2424;49.696;6.630;2023-11-19T03:40:35;11.20;99.90
4820;DHT22;2424;49.696;6.630;2023-11-19T03:45:58;11.30;99.90
4820;DHT22;2424;49.696;6.630;2023-11-19T03:51:21;11.40;99.90
4820;DHT22;2424;49.696;6.630;2023-11-19T03:56:43;11.50;99.90
4820;DHT22;2424;49.696;6.630;2023-11-19T04:02:06;11.50;99.90
4820;DHT22;2424;49.696;6.630;2023-11-19T04:07:29;11.60;99.90
4820;DHT22;2424;49.696;6.630;2023-11-19T04:12:52;11.70;99.90
4820;DHT22;2424;49.696;6.630;2023-11-19T04:18:14;11.70;99.90
4820;DHT22;2424;49.696;6.630;2023-11-19T04:23:37;11.70;99.90
4820;DHT22;2424;49.696;6.630;2023-11-19T04:28:59;11.70;99.90
4820;DHT22;2424;49.696;6.630;2023-11-19T04:34:21;11.70;99.90
4820;DHT22;2424;49.696;6.630;2023-11-19T04:39:45;11.80;99.90
4820;DHT22;2424;49.696;6.630;2023-11-19T04:45:08;11.80;99.90
4820;DHT22;2424;49.696;6.630;2023-11-19T04:50:30;11.90;99.90
4820;DHT22;2424;49.696;6.630;2023-11-19T04:55:54;11.90;99.90
4820;DHT22;2424;49.696;6.630;2023-11-19T05:01:15;11.90;99.90
4820;DHT22;2424;49.696;6.630;2023-11-19T05:06:38;11.90;99.90
4820;DHT22;2424;49.696;6.630;2023-11-19T05:12:01;11.80;99.90
4820;DHT22;2424;49.696;6.630;2023-11-19T05:17:23;12.00;99.90
4820;DHT22;2424;49.696;6.630;2023-11-19T05:22:45;12.00;99.90
4820;DHT22;2424;49.696;6.630;2023-11-19T05:28:08;12.10;99.90
4820;DHT22;2424;49.696;6.630;2023-11-19T05:33:30;12.10;99.90
4820;DHT22;2424;49.696;6.630;2023-11-19T05:38:52;12.10;99.90
4820;DHT22;2424;49.696;6.630;2023-11-19T05:44:16;12.10;99.90
4820;DHT22;2424;49.696;6.630;2023-11-19T05:49:38;12.10;99.90
4820;DHT22;2424;49.696;6.630;2023-11-19T05:55:00;12.10;99.90
4820;DHT22;2424;49.696;6.630;2023-11-19T06:00:26;12.10;99.90
4820;DHT22;2424;49.696;6.630;2023-11-19T06:05:48;12.10;99.90
4820;DHT22;2424;49.696;6.630;2023-11-19T06:11:10;12.10;99.90
4820;DHT22;2424;49.696;6.630;2023-11-19T06:16:36;12.00;99.90
4820;DHT22;2424;49.696;6.630;2023-11-19T06:22:00;12.00;99.90
4820;DHT22;2424;49.696;6.630;2023-11-19T06:27:22;12.10;99.90
4820;DHT22;2424;49.696;6.630;2023-11-19T06:32:45;12.10;99.90
4820;DHT22;2424;49.696;6.630;2023-11-19T06:38:07;12.10;99.90
4820;DHT22;2424;49.696;6.630;2023-11-19T06:43:29;12.10;99.90
4820;DHT22;2424;49.696;6.630;2023-11-19T06:48:55;12.10;99.90
4820;DHT22;2424;49.696;6.630;2023-11-19T06:54:17;12.10;99.90
4820;DHT22;2424;49.696;6.630;2023-11-19T06:59:40;12.10;99.90
4820;DHT22;2424;49.696;6.630;2023-11-19T07:05:03;12.10;99.90
4820;DHT22;2424;49.696;6.630;2023-11-19T07:10:26;12.20;99.90
4820;DHT22;2424;49.696;6.630;2023-11-19T07:15:48;12.20;99.90
4820;DHT22;2424;49.696;6.630;2023-11-19T07:21:11;12.40;99.90
4820;DHT22;2424;49.696;6.630;2023-11-19T07:26:34;12.30;99.90
4820;DHT22;2424;49.696;6.630;2023-11-19T07:31:56;12.30;99.90
4820;DHT22;2424;49.696;6.630;2023-11-19T07:37:19;12.30;99.90
4820;DHT22;2424;49.696;6.630;2023-11-19T07:42:41;12.20;99.90
4820;DHT22;2424;49.696;6.630;2023-11-19T07:48:04;12.30;99.90
4820;DHT22;2424;49.696;6.630;2023-11-19T07:53:28;12.30;99.90
4820;DHT22;2424;49.696;6.630;2023-11-19T07:58:50;12.40;99.90
4820;DHT22;2424;49.696;6.630;2023-11-19T08:04:12;12.40;99.90
4820;DHT22;2424;49.696;6.630;2023-11-19T08:09:35;12.30;99.90
4820;DHT22;2424;49.696;6.630;2023-11-19T08:15:00;12.30;99.90
4820;DHT22;2424;49.696;6.630;2023-11-19T08:20:22;12.20;99.90
4820;DHT22;2424;49.696;6.630;2023-11-19T08:25:45;12.20;99.90
4820;DHT22;2424;49.696;6.630;2023-11-19T08:31:07;12.20;99.90
4820;DHT22;2424;49.696;6.630;2023-11-19T08:36:29;12.10;99.90
4820;DHT22;2424;49.696;6.630;2023-11-19T08:41:53;12.10;99.90
4820;DHT22;2424;49.696;6.630;2023-11-19T08:47:16;12.00;99.90
4820;DHT22;2424;49.696;6.630;2023-11-19T08:52:38;12.10;99.90
4820;DHT22;2424;49.696;6.630;2023-11-19T08:58:01;12.10;99.90
4820;DHT22;2424;49.696;6.630;2023-11-19T09:03:23;12.10;99.90
4820;DHT22;2424;49.696;6.630;2023-11-19T09:08:46;12.20;99.90
4820;DHT22;2424;49.696;6.630;2023-11-19T09:14:10;12.20;99.90
4820;DHT22;2424;49.696;6.630;2023-11-19T09:19:32;12.30;99.90
4820;DHT22;2424;49.696;6.630;2023-11-19T09:24:56;12.40;99.90
4820;DHT22;2424;49.696;6.630;2023-11-19T09:30:22;12.50;99.90
4820;DHT22;2424;49.696;6.630;2023-11-19T09:35:44;12.90;99.90
4820;DHT22;2424;49.696;6.630;2023-11-19T09:41:06;12.90;99.90
4820;DHT22;2424;49.696;6.630;2023-11-19T09:46:31;12.90;99.90
4820;DHT22;2424;49.696;6.630;2023-11-19T09:51:53;12.90;99.90
4820;DHT22;2424;49.696;6.630;2023-11-19T09:57:16;13.00;99.90
4820;DHT22;2424;49.696;6.630;2023-11-19T10:02:40;12.90;99.90
4820;DHT22;2424;49.696;6.630;2023-11-19T10:08:02;13.00;99.90
4820;DHT22;2424;49.696;6.630;2023-11-19T10:13:26;13.00;99.90
4820;DHT22;2424;49.696;6.630;2023-11-19T10:18:49;13.10;99.90
4820;DHT22;2424;49.696;6.630;2023-11-19T10:24:12;13.10;99.90
4820;DHT22;2424;49.696;6.630;2023-11-19T10:29:36;13.00;99.90
4820;DHT22;2424;49.696;6.630;2023-11-19T10:35:06;13.00;99.90
4820;DHT22;2424;49.696;6.630;2023-11-19T10:40:38;13.00;99.90
4820;DHT22;2424;49.696;6.630;2023-11-19T10:46:11;13.20;99.90
4820;DHT22;2424;49.696;6.630;2023-11-19T10:51:35;13.10;99.90
4820;DHT22;2424;49.696;6.630;2023-11-19T10:56:59;13.10;99.90
4820;DHT22;2424;49.696;6.630;2023-11-19T11:02:24;13.10;99.90
4820;DHT22;2424;49.696;6.630;2023-11-19T11:07:49;13.10;99.90
4820;DHT22;2424;49.696;6.630;2023-11-19T11:13:14;13.20;99.90
4820;DHT22;2424;49.696;6.630;2023-11-19T11:18:36;13.30;99.90
4820;DHT22;2424;49.696;6.630;2023-11-19T11:24:27;13.10;99.90
4820;DHT22;2424;49.696;6.630;2023-11-19T11:29:59;13.00;99.90
4820;DHT22;2424;49.696;6.630;2023-11-19T11:35:30;13.00;99.90
4820;DHT22;2424;49.696;6.630;2023-11-19T11:41:17;12.90;99.90
4820;DHT22;2424;49.696;6.630;2023-11-19T11:46:54;12.80;99.90
4820;DHT22;2424;49.696;6.630;2023-11-19T11:52:16;12.60;99.90
4820;DHT22;2424;49.696;6.630;2023-11-19T11:57:39;12.50;99.90
4820;DHT22;2424;49.696;6.630;2023-11-19T12:03:04;12.50;99.90
4820;DHT22;2424;49.696;6.630;2023-11-19T12:08:28;12.50;99.90
4820;DHT22;2424;49.696;6.630;2023-11-19T12:13:55;12.60;99.90
4820;DHT22;2424;49.696;6.630;2023-11-19T12:19:20;12.70;99.90
4820;DHT22;2424;49.696;6.630;2023-11-19T12:24:42;12.90;99.90
4820;DHT22;2424;49.696;6.630;2023-11-19T12:30:06;13.00;99.90
4820;DHT22;2424;49.696;6.630;2023-11-19T12:35:29;13.70;99.90
4820;DHT22;2424;49.696;6.630;2023-11-19T12:41:03;14.30;99.90
4820;DHT22;2424;49.696;6.630;2023-11-19T12:46:26;14.60;99.90
4820;DHT22;2424;49.696;6.630;2023-11-19T12:51:48;14.90;99.90
4820;DHT22;2424;49.696;6.630;2023-11-19T12:57:10;15.10;99.90
4820;DHT22;2424;49.696;6.630;2023-11-19T13:02:46;15.10;99.90
4820;DHT22;2424;49.696;6.630;2023-11-19T13:08:09;15.40;99.90
4820;DHT22;2424;49.696;6.630;2023-11-19T13:13:33;14.80;99.90
4820;DHT22;2424;49.696;6.630;2023-11-19T13:18:58;14.70;99.90
4820;DHT22;2424;49.696;6.630;2023-11-19T13:24:20;15.00;99.90
4820;DHT22;2424;49.696;6.630;2023-11-19T13:29:42;15.10;99.90
4820;DHT22;2424;49.696;6.630;2023-11-19T13:35:06;15.10;99.90
4820;DHT22;2424;49.696;6.630;2023-11-19T13:40:29;15.10;99.90
4820;DHT22;2424;49.696;6.630;2023-11-19T13:45:51;14.60;99.90
4820;DHT22;2424;49.696;6.630;2023-11-19T13:51:15;14.30;99.90
4820;DHT22;2424;49.696;6.630;2023-11-19T13:56:37;14.00;99.90
4820;DHT22;2424;49.696;6.630;2023-11-19T14:01:59;13.70;99.90
4820;DHT22;2424;49.696;6.630;2023-11-19T14:07:22;13.60;99.90
4820;DHT22;2424;49.696;6.630;2023-11-19T14:12:45;14.00;99.90
4820;DHT22;2424;49.696;6.630;2023-11-19T14:18:07;14.10;99.90
4820;DHT22;2424;49.696;6.630;2023-11-19T14:23:30;14.20;99.90
4820;DHT22;2424;49.696;6.630;2023-11-19T14:28:52;14.20;99.90
4820;DHT22;2424;49.696;6.630;2023-11-19T14:34:14;13.80;99.90
4820;DHT22;2424;49.696;6.630;2023-11-19T14:39:37;13.60;99.90
4820;DHT22;2424;49.696;6.630;2023-11-19T14:44:59;13.30;99.90
4820;DHT22;2424;49.696;6.630;2023-11-19T14:50:21;13.10;99.90
4820;DHT22;2424;49.696;6.630;2023-11-19T14:55:45;13.00;99.90
4820;DHT22;2424;49.696;6.630;2023-11-19T15:01:11;12.80;99.90
4820;DHT22;2424;49.696;6.630;2023-11-19T15:06:33;12.80;99.90
4820;DHT22;2424;49.696;6.630;2023-11-19T15:11:56;12.80;99.90
4820;DHT22;2424;49.696;6.630;2023-11-19T15:17:19;12.80;99.90
4820;DHT22;2424;49.696;6.630;2023-11-19T15:22:40;12.80;99.90
4820;DHT22;2424;49.696;6.630;2023-11-19T15:28:04;12.70;99.90
4820;DHT22;2424;49.696;6.630;2023-11-19T15:33:26;12.60;99.90
4820;DHT22;2424;49.696;6.630;2023-11-19T15:38:49;12.50;99.90
4820;DHT22;2424;49.696;6.630;2023-11-19T15:44:12;12.40;99.90
4820;DHT22;2424;49.696;6.630;2023-11-19T15:49:34;12.40;99.90
4820;DHT22;2424;49.696;6.630;2023-11-19T15:54:57;12.30;99.90
4820;DHT22;2424;49.696;6.630;2023-11-19T16:00:21;12.30;99.90
4820;DHT22;2424;49.696;6.630;2023-11-19T16:05:42;12.20;99.90
4820;DHT22;2424;49.696;6.630;2023-11-19T16:11:05;12.10;99.90
4820;DHT22;2424;49.696;6.630;2023-11-19T16:16:30;12.10;99.90
4820;DHT22;2424;49.696;6.630;2023-11-19T16:21:52;12.00;99.90
4820;DHT22;2424;49.696;6.630;2023-11-19T16:27:14;12.00;99.90
4820;DHT22;2424;49.696;6.630;2023-11-19T16:32:50;11.90;99.90
4820;DHT22;2424;49.696;6.630;2023-11-19T16:38:13;11.90;99.90
4820;DHT22;2424;49.696;6.630;2023-11-19T16:43:35;11.80;99.90
4820;DHT22;2424;49.696;6.630;2023-11-19T16:48:59;11.70;99.90
4820;DHT22;2424;49.696;6.630;2023-11-19T16:54:20;11.60;99.90
4820;DHT22;2424;49.696;6.630;2023-11-19T16:59:42;11.60;99.90
4820;DHT22;2424;49.696;6.630;2023-11-19T17:05:06;11.60;99.90
4820;DHT22;2424;49.696;6.630;2023-11-19T17:10:28;11.60;99.90
4820;DHT22;2424;49.696;6.630;2023-11-19T17:15:50;11.50;99.90
4820;DHT22;2424;49.696;6.630;2023-11-19T17:21:13;11.50;99.90
4820;DHT22;2424;49.696;6.630;2023-11-19T17:26:35;11.50;99.90
4820;DHT22;2424;49.696;6.630;2023-11-19T17:31:57;11.50;99.90
4820;DHT22;2424;49.696;6.630;2023-11-19T17:37:20;11.50;99.90
4820;DHT22;2424;49.696;6.630;2023-11-19T17:42:42;11.40;99.90
4820;DHT22;2424;49.696;6.630;2023-11-19T17:48:05;11.40;99.90
4820;DHT22;2424;49.696;6.630;2023-11-19T17:53:28;11.40;99.90
4820;DHT22;2424;49.696;6.630;2023-11-19T17:58:50;11.40;99.90
4820;DHT22;2424;49.696;6.630;2023-11-19T18:04:12;11.40;99.90
4820;DHT22;2424;49.696;6.630;2023-11-19T18:09:35;11.40;99.90
4820;DHT22;2424;49.696;6.630;2023-11-19T18:14:57;11.40;99.90
4820;DHT22;2424;49.696;6.630;2023-11-19T18:20:19;11.40;99.90
4820;DHT22;2424;49.696;6.630;2023-11-19T18:25:42;11.50;99.90
4820;DHT22;2424;49.696;6.630;2023-11-19T18:31:07;11.40;99.90
4820;DHT22;2424;49.696;6.630;2023-11-19T18:36:33;11.40;99.90
4820;DHT22;2424;49.696;6.630;2023-11-19T18:41:57;11.40;99.90
4820;DHT22;2424;49.696;6.630;2023-11-19T18:47:18;11.40;99.90
4820;DHT22;2424;49.696;6.630;2023-11-19T18:52:40;11.40;99.90
4820;DHT22;2424;49.696;6.630;2023-11-19T18:58:04;11.40;99.90
4820;DHT22;2424;49.696;6.630;2023-11-19T19:03:26;11.30;99.90
4820;DHT22;2424;49.696;6.630;2023-11-19T19:08:51;11.40;99.90
4820;DHT22;2424;49.696;6.630;2023-11-19T19:14:15;11.30;99.90
4820;DHT22;2424;49.696;6.630;2023-11-19T19:19:36;11.40;99.90
4820;DHT22;2424;49.696;6.630;2023-11-19T19:24:59;11.30;99.90
4820;DHT22;2424;49.696;6.630;2023-11-19T19:30:22;11.40;99.90
4820;DHT22;2424;49.696;6.630;2023-11-19T19:35:44;11.40;99.90
4820;DHT22;2424;49.696;6.630;2023-11-19T19:41:06;11.40;99.90
4820;DHT22;2424;49.696;6.630;2023-11-19T19:46:29;11.40;99.90
4820;DHT22;2424;49.696;6.630;2023-11-19T19:51:52;11.40;99.90
4820;DHT22;2424;49.696;6.630;2023-11-19T19:57:14;11.40;99.90
4820;DHT22;2424;49.696;6.630;2023-11-19T20:02:37;11.40;99.90
4820;DHT22;2424;49.696;6.630;2023-11-19T20:07:59;11.40;99.90
4820;DHT22;2424;49.696;6.630;2023-11-19T20:13:22;11.50;99.90
4820;DHT22;2424;49.696;6.630;2023-11-19T20:18:46;11.50;99.90
4820;DHT22;2424;49.696;6.630;2023-11-19T20:24:08;11.40;99.90
4820;DHT22;2424;49.696;6.630;2023-11-19T20:29:30;11.40;99.90
4820;DHT22;2424;49.696;6.630;2023-11-19T20:34:53;11.50;99.90
4820;DHT22;2424;49.696;6.630;2023-11-19T20:40:15;11.50;99.90
4820;DHT22;2424;49.696;6.630;2023-11-19T20:45:37;11.50;99.90
4820;DHT22;2424;49.696;6.630;2023-11-19T20:51:01;11.50;99.90
4820;DHT22;2424;49.696;6.630;2023-11-19T20:56:22;11.40;99.90
4820;DHT22;2424;49.696;6.630;2023-11-19T21:01:45;11.40;99.90
4820;DHT22;2424;49.696;6.630;2023-11-19T21:07:08;11.40;99.90
4820;DHT22;2424;49.696;6.630;2023-11-19T21:12:30;11.40;99.90
4820;DHT22;2424;49.696;6.630;2023-11-19T21:17:52;11.40;99.90
4820;DHT22;2424;49.696;6.630;2023-11-19T21:23:15;11.40;99.90
4820;DHT22;2424;49.696;6.630;2023-11-19T21:28:41;11.40;99.90
4820;DHT22;2424;49.696;6.630;2023-11-19T21:34:03;11.40;99.90
4820;DHT22;2424;49.696;6.630;2023-11-19T21:39:27;11.30;99.90
4820;DHT22;2424;49.696;6.630;2023-11-19T21:44:49;11.30;99.90
4820;DHT22;2424;49.696;6.630;2023-11-19T21:50:11;11.30;99.90
4820;DHT22;2424;49.696;6.630;2023-11-19T21:55:34;11.30;99.90
4820;DHT22;2424;49.696;6.630;2023-11-19T22:00:56;11.20;99.90
4820;DHT22;2424;49.696;6.630;2023-11-19T22:06:18;11.30;99.90
4820;DHT22;2424;49.696;6.630;2023-11-19T22:11:41;11.30;99.90
4820;DHT22;2424;49.696;6.630;2023-11-19T22:17:04;11.20;99.90
4820;DHT22;2424;49.696;6.630;2023-11-19T22:22:25;11.30;99.90
4820;DHT22;2424;49.696;6.630;2023-11-19T22:27:49;11.30;99.90
4820;DHT22;2424;49.696;6.630;2023-11-19T22:33:11;11.30;99.90
4820;DHT22;2424;49.696;6.630;2023-11-19T22:38:33;11.30;99.90
4820;DHT22;2424;49.696;6.630;2023-11-19T22:43:56;11.30;99.90
4820;DHT22;2424;49.696;6.630;2023-11-19T22:49:18;11.20;99.90
4820;DHT22;2424;49.696;6.630;2023-11-19T22:54:40;11.20;99.90
4820;DHT22;2424;49.696;6.630;2023-11-19T23:00:05;11.20;99.90
4820;DHT22;2424;49.696;6.630;2023-11-19T23:05:37;11.10;99.90
4820;DHT22;2424;49.696;6.630;2023-11-19T23:10:59;11.10;99.90
4820;DHT22;2424;49.696;6.630;2023-11-19T23:16:23;11.10;99.90
4820;DHT22;2424;49.696;6.630;2023-11-19T23:21:45;11.20;99.90
4820;DHT22;2424;49.696;6.630;2023-11-19T23:27:08;11.20;99.90
4820;DHT22;2424;49.696;6.630;2023-11-19T23:32:37;11.20;99.90
4820;DHT22;2424;49.696;6.630;2023-11-19T23:37:59;11.20;99.90
4820;DHT22;2424;49.696;6.630;2023-11-19T23:43:21;11.20;99.90
4820;DHT22;2424;49.696;6.630;2023-11-19T23:48:44;11.20;99.90
4820;DHT22;2424;49.696;6.630;2023-11-19T23:54:06;11.20;99.90
4820;DHT22;2424;49.696;6.630;2023-11-19T23:59:29;11.20;99.90
